createdAt,value
2018-09-17T00:00:36.240Z,97995.00
2018-09-17T00:03:16.804Z,97988.00
2018-09-17T00:05:59.374Z,97994.00
2018-09-17T00:08:39.828Z,98001.00
2018-09-17T00:11:20.436Z,97997.00
2018-09-17T00:14:02.757Z,97996.00
2018-09-17T00:16:43.249Z,98006.00
2018-09-17T00:19:24.692Z,97998.00
2018-09-17T00:22:07.248Z,97996.00
2018-09-17T00:24:48.537Z,98004.00
2018-09-17T00:27:31.570Z,98004.00
2018-09-17T00:30:12.747Z,98000.00
2018-09-17T00:32:53.285Z,97993.00
2018-09-17T00:35:34.348Z,98002.00
2018-09-17T00:38:14.749Z,97999.00
2018-09-17T00:40:55.316Z,97991.00
2018-09-17T00:43:35.789Z,97986.00
2018-09-17T00:46:16.153Z,97997.00
2018-09-17T00:48:56.775Z,97994.00
2018-09-17T00:51:37.321Z,97988.00
2018-09-17T00:54:18.112Z,97977.00
2018-09-17T00:57:01.458Z,97981.00
2018-09-17T00:59:42.029Z,97987.00
2018-09-17T01:08:54.693Z,97981.00
2018-09-17T01:11:35.208Z,97981.00
2018-09-17T01:14:15.787Z,97982.00
2018-09-17T01:16:56.783Z,97973.00
2018-09-17T01:19:37.174Z,97979.00
2018-09-17T01:22:17.808Z,97984.00
2018-09-17T01:24:58.433Z,97972.00
2018-09-17T01:27:38.932Z,97968.00
2018-09-17T01:30:20.840Z,97959.00
2018-09-17T01:33:01.295Z,97948.00
2018-09-17T01:35:41.794Z,97963.00
2018-09-17T01:38:24.889Z,97955.00
2018-09-17T01:41:05.469Z,97954.00
2018-09-17T01:43:45.815Z,97960.00
2018-09-17T01:46:26.465Z,97952.00
2018-09-17T01:49:07.229Z,97954.00
2018-09-17T01:51:47.816Z,97950.00
2018-09-17T01:54:28.394Z,97945.00
2018-09-17T01:57:08.796Z,97949.00
2018-09-17T01:59:50.795Z,97942.00
2018-09-17T02:02:31.249Z,97943.00
2018-09-17T02:05:11.779Z,97952.00
2018-09-17T02:07:54.748Z,97940.00
2018-09-17T02:10:35.155Z,97941.00
2018-09-17T02:13:15.619Z,97934.00
2018-09-17T02:15:56.729Z,97944.00
2018-09-17T02:18:37.266Z,97933.00
2018-09-17T02:21:17.800Z,97928.00
2018-09-17T02:23:58.317Z,97934.00
2018-09-17T02:26:38.953Z,97930.00
2018-09-17T02:29:20.948Z,97936.00
2018-09-17T02:32:01.455Z,97932.00
2018-09-17T02:34:41.950Z,97929.00
2018-09-17T02:37:24.866Z,97928.00
2018-09-17T02:40:09.856Z,97936.00
2018-09-17T02:42:51.775Z,97924.00
2018-09-17T02:45:32.136Z,97937.00
2018-09-17T02:48:12.802Z,97936.00
2018-09-17T02:50:54.780Z,97923.00
2018-09-17T02:53:35.192Z,97932.00
2018-09-17T02:56:15.682Z,97925.00
2018-09-17T02:58:57.166Z,97933.00
2018-09-17T03:01:37.716Z,97933.00
2018-09-17T03:04:18.076Z,97922.00
2018-09-17T03:06:58.627Z,97926.00
2018-09-17T03:09:39.202Z,97927.00
2018-09-17T03:12:20.692Z,97923.00
2018-09-17T03:15:23.811Z,97934.00
2018-09-17T03:18:04.229Z,97931.00
2018-09-17T03:20:44.740Z,97934.00
2018-09-17T03:23:26.596Z,97951.00
2018-09-17T03:26:07.240Z,97942.00
2018-09-17T03:28:47.960Z,97953.00
2018-09-17T03:31:28.673Z,97944.00
2018-09-17T03:34:09.248Z,97957.00
2018-09-17T03:36:50.675Z,97951.00
2018-09-17T03:39:31.268Z,97942.00
2018-09-17T03:42:11.840Z,97953.00
2018-09-17T03:44:54.828Z,97943.00
2018-09-17T03:47:35.200Z,97943.00
2018-09-17T03:50:15.733Z,97952.00
2018-09-17T03:52:56.519Z,97950.00
2018-09-17T03:55:37.057Z,97951.00
2018-09-17T03:58:17.575Z,97948.00
2018-09-17T04:00:58.690Z,97954.00
2018-09-17T04:03:39.159Z,97951.00
2018-09-17T04:06:20.965Z,97953.00
2018-09-17T04:09:01.629Z,97951.00
2018-09-17T04:11:42.340Z,97950.00
2018-09-17T04:14:24.873Z,97951.00
2018-09-17T04:17:06.368Z,97955.00
2018-09-17T04:19:46.927Z,97952.00
2018-09-17T04:22:27.568Z,97957.00
2018-09-17T04:25:07.993Z,97957.00
2018-09-17T04:27:48.553Z,97953.00
2018-09-17T04:30:28.976Z,97958.00
2018-09-17T04:34:12.081Z,97960.00
2018-09-17T04:36:54.775Z,97961.00
2018-09-17T04:39:35.211Z,97949.00
2018-09-17T04:42:16.526Z,97957.00
2018-09-17T04:44:57.009Z,97947.00
2018-09-17T04:47:37.612Z,97946.00
2018-09-17T04:50:18.006Z,97944.00
2018-09-17T04:52:58.401Z,97939.00
2018-09-17T04:55:38.994Z,97952.00
2018-09-17T04:58:20.951Z,97943.00
2018-09-17T05:01:01.565Z,97945.00
2018-09-17T05:03:42.175Z,97938.00
2018-09-17T05:06:25.388Z,97945.00
2018-09-17T05:09:09.455Z,97950.00
2018-09-17T05:11:51.149Z,97962.00
2018-09-17T05:14:31.641Z,97965.00
2018-09-17T05:17:12.190Z,97955.00
2018-09-17T05:19:55.552Z,97959.00
2018-09-17T05:22:36.198Z,97960.00
2018-09-17T05:25:16.851Z,97962.00
2018-09-17T05:27:57.376Z,97950.00
2018-09-17T05:30:37.909Z,97961.00
2018-09-17T05:33:18.450Z,97959.00
2018-09-17T05:35:59.052Z,97958.00
2018-09-17T05:38:39.395Z,97958.00
2018-09-17T05:41:21.488Z,97963.00
2018-09-17T05:44:01.945Z,97964.00
2018-09-17T05:46:42.517Z,97960.00
2018-09-17T05:49:25.664Z,97971.00
2018-09-17T05:52:06.093Z,97960.00
2018-09-17T05:54:46.614Z,97965.00
2018-09-17T05:57:27.323Z,97968.00
2018-09-17T06:00:08.560Z,97970.00
2018-09-17T06:02:49.003Z,97975.00
2018-09-17T06:05:29.747Z,97977.00
2018-09-17T06:08:10.317Z,97975.00
2018-09-17T06:10:52.260Z,97976.00
2018-09-17T06:13:32.976Z,97986.00
2018-09-17T06:16:13.443Z,97982.00
2018-09-17T06:18:55.788Z,97983.00
2018-09-17T06:21:37.921Z,97985.00
2018-09-17T06:24:18.345Z,97979.00
2018-09-17T06:26:58.883Z,97982.00
2018-09-17T06:29:39.381Z,97972.00
2018-09-17T06:32:21.138Z,97986.00
2018-09-17T06:35:01.757Z,97981.00
2018-09-17T06:37:42.315Z,97986.00
2018-09-17T06:40:25.525Z,97983.00
2018-09-17T06:43:05.865Z,97986.00
2018-09-17T06:45:46.449Z,97989.00
2018-09-17T06:48:26.967Z,97982.00
2018-09-17T06:51:07.488Z,97983.00
2018-09-17T06:53:48.150Z,97986.00
2018-09-17T06:56:29.328Z,97978.00
2018-09-17T06:59:09.738Z,97993.00
2018-09-17T07:01:51.045Z,97986.00
2018-09-17T07:04:31.629Z,97986.00
2018-09-17T07:07:12.179Z,97985.00
2018-09-17T07:09:55.865Z,97988.00
2018-09-17T07:12:36.556Z,97983.00
2018-09-17T07:15:17.431Z,97984.00
2018-09-17T07:17:58.008Z,97978.00
2018-09-17T07:20:38.660Z,97975.00
2018-09-17T07:23:19.189Z,97982.00
2018-09-17T07:25:59.773Z,97976.00
2018-09-17T07:28:40.408Z,97980.00
2018-09-17T07:31:24.053Z,97991.00
2018-09-17T07:34:04.508Z,97991.00
2018-09-17T07:36:45.056Z,97987.00
2018-09-17T07:39:57.660Z,97990.00
2018-09-17T07:42:38.099Z,97995.00
2018-09-17T07:45:18.649Z,97996.00
2018-09-17T07:47:59.205Z,97987.00
2018-09-17T07:50:39.804Z,97983.00
2018-09-17T07:53:22.234Z,97984.00
2018-09-17T07:56:02.890Z,97974.00
2018-09-17T07:58:43.486Z,97985.00
2018-09-17T08:01:25.679Z,97986.00
2018-09-17T08:04:06.213Z,97976.00
2018-09-17T08:06:46.859Z,97980.00
2018-09-17T08:09:27.430Z,97976.00
2018-09-17T08:12:08.218Z,97977.00
2018-09-17T08:14:48.660Z,97970.00
2018-09-17T08:17:29.257Z,97967.00
2018-09-17T08:20:09.861Z,97975.00
2018-09-17T08:22:52.133Z,97974.00
2018-09-17T08:25:32.778Z,97968.00
2018-09-17T08:28:13.296Z,97967.00
2018-09-17T08:30:55.576Z,97962.00
2018-09-17T08:33:36.657Z,97976.00
2018-09-17T08:36:17.292Z,97964.00
2018-09-17T08:38:57.947Z,97969.00
2018-09-17T08:41:39.151Z,97962.00
2018-09-17T08:44:21.049Z,97963.00
2018-09-17T08:47:01.726Z,97968.00
2018-09-17T08:49:42.366Z,97972.00
2018-09-17T08:52:25.619Z,97971.00
2018-09-17T08:55:09.117Z,97969.00
2018-09-17T08:57:54.894Z,97965.00
2018-09-17T09:00:40.805Z,97956.00
2018-09-17T09:03:28.128Z,97956.00
2018-09-17T09:06:14.957Z,97951.00
2018-09-17T09:08:56.906Z,97951.00
2018-09-17T09:11:42.827Z,97954.00
2018-09-17T09:14:30.956Z,97947.00
2018-09-17T09:17:11.863Z,97949.00
2018-09-17T09:19:55.801Z,97943.00
2018-09-17T09:22:36.225Z,97943.00
2018-09-17T09:25:16.909Z,97941.00
2018-09-17T09:27:57.506Z,97945.00
2018-09-17T09:30:38.103Z,97935.00
2018-09-17T09:33:18.709Z,97941.00
2018-09-17T09:35:59.148Z,97941.00
2018-09-17T09:38:39.741Z,97933.00
2018-09-17T09:41:21.963Z,97938.00
2018-09-17T09:44:02.728Z,97940.00
2018-09-17T09:46:43.315Z,97936.00
2018-09-17T09:49:25.689Z,97934.00
2018-09-17T09:52:06.476Z,97939.00
2018-09-17T09:54:47.100Z,97928.00
2018-09-17T09:57:27.742Z,97932.00
2018-09-17T10:00:15.377Z,97935.00
2018-09-17T10:03:02.357Z,97920.00
2018-09-17T10:05:42.905Z,97930.00
2018-09-17T10:08:25.635Z,97927.00
2018-09-17T10:11:12.061Z,97934.00
2018-09-17T10:14:00.696Z,97938.00
2018-09-17T10:16:45.396Z,97942.00
2018-09-17T10:19:27.011Z,97936.00
2018-09-17T10:22:07.382Z,97928.00
2018-09-17T10:24:48.050Z,97936.00
2018-09-17T10:27:28.670Z,97931.00
2018-09-17T10:30:09.236Z,97930.00
2018-09-17T10:32:51.004Z,97936.00
2018-09-17T10:35:31.625Z,97923.00
2018-09-17T10:38:13.164Z,97919.00
2018-09-17T10:40:54.878Z,97920.00
2018-09-17T10:43:35.513Z,97935.00
2018-09-17T10:46:16.105Z,97929.00
2018-09-17T10:48:56.676Z,97931.00
2018-09-17T10:51:37.336Z,97931.00
2018-09-17T10:54:18.118Z,97931.00
2018-09-17T10:56:58.669Z,97919.00
2018-09-17T10:59:39.002Z,97921.00
2018-09-17T11:02:23.866Z,97921.00
2018-09-17T11:05:04.377Z,97916.00
2018-09-17T11:07:44.907Z,97916.00
2018-09-17T11:10:26.735Z,97909.00
2018-09-17T11:13:08.081Z,97901.00
2018-09-17T11:15:51.183Z,97906.00
2018-09-17T11:18:31.752Z,97901.00
2018-09-17T11:21:12.291Z,97898.00
2018-09-17T11:23:55.436Z,97899.00
2018-09-17T11:26:36.110Z,97892.00
2018-09-17T11:29:16.968Z,97887.00
2018-09-17T11:31:57.560Z,97886.00
2018-09-17T11:34:38.784Z,97885.00
2018-09-17T11:37:21.172Z,97880.00
2018-09-17T11:40:01.690Z,97879.00
2018-09-17T11:42:42.269Z,97869.00
2018-09-17T11:45:25.590Z,97861.00
2018-09-17T11:48:07.327Z,97863.00
2018-09-17T11:50:47.745Z,97853.00
2018-09-17T11:53:28.337Z,97855.00
2018-09-17T11:56:08.980Z,97856.00
2018-09-17T11:58:50.947Z,97858.00
2018-09-17T12:01:36.859Z,97868.00
2018-09-17T12:04:21.397Z,97865.00
2018-09-17T12:07:07.333Z,97869.00
2018-09-17T12:09:47.746Z,97862.00
2018-09-17T12:12:28.133Z,97864.00
2018-09-17T12:15:09.412Z,97868.00
2018-09-17T12:17:53.912Z,97865.00
2018-09-17T12:20:34.525Z,97881.00
2018-09-17T12:23:15.169Z,97862.00
2018-09-17T12:25:56.779Z,97857.00
2018-09-17T12:28:37.520Z,97860.00
2018-09-17T12:31:18.129Z,97860.00
2018-09-17T12:33:58.554Z,97847.00
2018-09-17T12:36:39.052Z,97845.00
2018-09-17T12:39:20.901Z,97848.00
2018-09-17T12:42:01.501Z,97850.00
2018-09-17T12:44:42.706Z,97849.00
2018-09-17T12:47:25.745Z,97839.00
2018-09-17T12:50:06.241Z,97844.00
2018-09-17T12:52:46.908Z,97847.00
2018-09-17T12:55:27.872Z,97836.00
2018-09-17T12:58:08.404Z,97836.00
2018-09-17T13:00:53.859Z,97844.00
2018-09-17T13:03:34.418Z,97835.00
2018-09-17T13:06:14.988Z,97833.00
2018-09-17T13:08:56.796Z,97832.00
2018-09-17T13:11:38.154Z,97826.00
2018-09-17T13:14:18.781Z,97836.00
2018-09-17T13:16:59.479Z,97838.00
2018-09-17T13:19:40.040Z,97833.00
2018-09-17T13:22:21.749Z,97830.00
2018-09-17T13:25:02.279Z,97831.00
2018-09-17T13:27:42.807Z,97828.00
2018-09-17T13:30:27.201Z,97822.00
2018-09-17T13:33:09.685Z,97822.00
2018-09-17T13:35:51.118Z,97830.00
2018-09-17T13:38:31.645Z,97829.00
2018-09-17T13:41:12.541Z,97829.00
2018-09-17T13:43:55.029Z,97829.00
2018-09-17T13:46:35.658Z,97826.00
2018-09-17T13:49:16.223Z,97827.00
2018-09-17T13:51:57.207Z,97823.00
2018-09-17T13:54:37.683Z,97824.00
2018-09-17T13:57:18.420Z,97821.00
2018-09-17T13:59:59.696Z,97818.00
2018-09-17T14:02:41.190Z,97822.00
2018-09-17T14:05:23.992Z,97824.00
2018-09-17T14:08:04.482Z,97819.00
2018-09-17T14:10:45.204Z,97822.00
2018-09-17T14:13:27.019Z,97817.00
2018-09-17T14:16:09.744Z,97817.00
2018-09-17T14:18:50.922Z,97816.00
2018-09-17T14:21:31.451Z,97818.00
2018-09-17T14:24:12.262Z,97814.00
2018-09-17T14:26:54.969Z,97812.00
2018-09-17T14:29:35.565Z,97820.00
2018-09-17T14:32:21.546Z,97802.00
2018-09-17T14:35:01.996Z,97807.00
2018-09-17T14:37:42.523Z,97811.00
2018-09-17T14:40:25.078Z,97800.00
2018-09-17T14:43:05.655Z,97805.00
2018-09-17T14:45:46.298Z,97796.00
2018-09-17T14:48:28.560Z,97805.00
2018-09-17T14:51:09.215Z,97813.00
2018-09-17T14:53:52.031Z,97810.00
2018-09-17T14:56:32.742Z,97803.00
2018-09-17T14:59:13.313Z,97810.00
2018-09-17T15:01:56.557Z,97811.00
2018-09-17T15:04:37.160Z,97818.00
2018-09-17T15:07:17.929Z,97815.00
2018-09-17T15:09:59.753Z,97816.00
2018-09-17T15:12:40.180Z,97818.00
2018-09-17T15:15:21.951Z,97812.00
2018-09-17T15:18:02.551Z,97810.00
2018-09-17T15:20:43.227Z,97798.00
2018-09-17T15:23:25.910Z,97796.00
2018-09-17T15:26:06.573Z,97797.00
2018-09-17T15:28:47.183Z,97789.00
2018-09-17T15:31:27.790Z,97798.00
2018-09-17T15:34:08.373Z,97800.00
2018-09-17T15:36:49.044Z,97801.00
2018-09-17T15:39:30.557Z,97806.00
2018-09-17T15:42:11.128Z,97798.00
2018-09-17T15:44:54.536Z,97801.00
2018-09-17T15:47:35.782Z,97807.00
2018-09-17T15:50:16.371Z,97811.00
2018-09-17T15:52:57.502Z,97799.00
2018-09-17T15:55:38.032Z,97804.00
2018-09-17T15:58:18.784Z,97806.00
2018-09-17T16:00:59.524Z,97800.00
2018-09-17T16:03:39.995Z,97807.00
2018-09-17T16:06:21.649Z,97799.00
2018-09-17T16:09:02.680Z,97806.00
2018-09-17T16:11:43.325Z,97805.00
2018-09-17T16:14:25.584Z,97804.00
2018-09-17T16:17:07.260Z,97806.00
2018-09-17T16:19:47.921Z,97800.00
2018-09-17T16:22:28.547Z,97809.00
2018-09-17T16:25:09.225Z,97808.00
2018-09-17T16:27:49.915Z,97808.00
2018-09-17T16:30:30.612Z,97809.00
2018-09-17T16:33:11.445Z,97806.00
2018-09-17T16:35:54.873Z,97808.00
2018-09-17T16:38:35.467Z,97818.00
2018-09-17T16:41:16.281Z,97810.00
2018-09-17T16:43:57.756Z,97811.00
2018-09-17T16:46:38.340Z,97807.00
2018-09-17T16:49:22.149Z,97809.00
2018-09-17T16:52:02.701Z,97813.00
2018-09-17T16:54:43.396Z,97817.00
2018-09-17T16:57:26.158Z,97806.00
2018-09-17T17:00:07.185Z,97819.00
2018-09-17T17:03:04.656Z,97817.00
2018-09-17T17:05:46.431Z,97815.00
2018-09-17T17:08:30.318Z,97810.00
2018-09-17T17:11:12.309Z,97814.00
2018-09-17T17:13:55.288Z,97820.00
2018-09-17T17:16:36.010Z,97824.00
2018-09-17T17:19:17.980Z,97820.00
2018-09-17T17:21:58.748Z,97821.00
2018-09-17T17:24:40.178Z,97823.00
2018-09-17T17:27:22.408Z,97821.00
2018-09-17T17:30:02.936Z,97829.00
2018-09-17T17:32:44.776Z,97832.00
2018-09-17T17:35:26.776Z,97832.00
2018-09-17T17:38:08.404Z,97832.00
2018-09-17T17:40:49.154Z,97832.00
2018-09-17T17:43:29.589Z,97837.00
2018-09-17T17:46:28.786Z,97837.00
2018-09-17T17:49:09.532Z,97837.00
2018-09-17T17:51:50.509Z,97836.00
2018-09-17T17:54:31.105Z,97844.00
2018-09-17T17:57:11.676Z,97842.00
2018-09-17T17:59:55.419Z,97842.00
2018-09-17T18:02:36.584Z,97832.00
2018-09-17T18:05:17.337Z,97830.00
2018-09-17T18:07:57.958Z,97830.00
2018-09-17T18:10:38.621Z,97829.00
2018-09-17T18:13:20.137Z,97832.00
2018-09-17T18:16:00.863Z,97839.00
2018-09-17T18:18:41.535Z,97831.00
2018-09-17T18:21:25.277Z,97824.00
2018-09-17T18:24:06.645Z,97843.00
2018-09-17T18:26:47.742Z,97836.00
2018-09-17T18:29:28.651Z,97848.00
2018-09-17T18:32:09.372Z,97847.00
2018-09-17T18:34:50.322Z,97853.00
2018-09-17T18:37:31.079Z,97854.00
2018-09-17T18:40:11.618Z,97845.00
2018-09-17T18:42:53.000Z,97848.00
2018-09-17T18:45:33.443Z,97841.00
2018-09-17T18:48:14.073Z,97843.00
2018-09-17T18:51:00.038Z,97846.00
2018-09-17T18:53:40.580Z,97839.00
2018-09-17T18:56:21.247Z,97843.00
2018-09-17T18:59:01.772Z,97837.00
2018-09-17T19:01:42.541Z,97844.00
2018-09-17T19:04:26.098Z,97850.00
2018-09-17T19:07:06.576Z,97844.00
2018-09-17T19:09:47.548Z,97841.00
2018-09-17T19:12:29.215Z,97844.00
2018-09-17T19:15:15.110Z,97834.00
2018-09-17T19:18:01.570Z,97831.00
2018-09-17T19:20:42.293Z,97830.00
2018-09-17T19:23:28.941Z,97832.00
2018-09-17T19:26:09.757Z,97834.00
2018-09-17T19:28:56.428Z,97834.00
2018-09-17T19:31:36.936Z,97834.00
2018-09-17T19:34:17.816Z,97834.00
2018-09-17T19:37:04.840Z,97828.00
2018-09-17T19:39:50.945Z,97836.00
2018-09-17T19:42:31.888Z,97839.00
2018-09-17T19:45:18.035Z,97841.00
2018-09-17T19:47:59.575Z,97844.00
2018-09-17T19:50:45.860Z,97845.00
2018-09-17T19:53:30.084Z,97847.00
2018-09-17T19:56:10.949Z,97841.00
2018-09-17T19:58:57.169Z,97843.00
2018-09-17T20:01:37.841Z,97844.00
2018-09-17T20:04:24.230Z,97853.00
2018-09-17T20:07:04.778Z,97848.00
2018-09-17T20:09:45.308Z,97858.00
2018-09-17T20:12:27.607Z,97843.00
2018-09-17T20:15:08.371Z,97840.00
2018-09-17T20:17:49.859Z,97848.00
2018-09-17T20:20:30.605Z,97859.00
2018-09-17T20:23:11.136Z,97848.00
2018-09-17T20:25:51.727Z,97866.00
2018-09-17T20:28:32.516Z,97864.00
2018-09-17T20:31:13.620Z,97853.00
2018-09-17T20:33:57.040Z,97856.00
2018-09-17T20:36:38.013Z,97846.00
2018-09-17T20:39:18.638Z,97846.00
2018-09-17T20:42:00.599Z,97845.00
2018-09-17T20:47:36.223Z,97853.00
2018-09-17T20:50:16.822Z,97851.00
2018-09-17T20:52:59.031Z,97848.00
2018-09-17T20:55:39.646Z,97848.00
2018-09-17T20:58:20.872Z,97847.00
2018-09-17T21:01:01.500Z,97844.00
2018-09-17T21:03:42.064Z,97837.00
2018-09-17T21:06:27.290Z,97846.00
2018-09-17T21:09:11.773Z,97839.00
2018-09-17T21:11:52.431Z,97842.00
2018-09-17T21:14:32.992Z,97842.00
2018-09-17T21:17:13.613Z,97842.00
2018-09-17T21:19:57.296Z,97837.00
2018-09-17T21:22:38.710Z,97846.00
2018-09-17T21:25:19.497Z,97842.00
2018-09-17T21:28:00.086Z,97839.00
2018-09-17T21:30:40.778Z,97838.00
2018-09-17T21:33:21.428Z,97839.00
2018-09-17T21:36:02.105Z,97841.00
2018-09-17T21:38:43.777Z,97833.00
2018-09-17T21:41:27.572Z,97831.00
2018-09-17T21:44:09.009Z,97832.00
2018-09-17T21:46:49.528Z,97835.00
2018-09-17T21:49:30.124Z,97827.00
2018-09-17T21:52:10.792Z,97831.00
2018-09-17T21:54:51.469Z,97821.00
2018-09-17T21:57:32.759Z,97831.00
2018-09-17T22:00:13.341Z,97834.00
2018-09-17T22:02:58.508Z,97827.00
2018-09-17T22:05:40.517Z,97828.00
2018-09-17T22:08:21.181Z,97839.00
2018-09-17T22:11:02.026Z,97834.00
2018-09-17T22:13:42.411Z,97824.00
2018-09-17T22:16:24.223Z,97827.00
2018-09-17T22:19:04.825Z,97822.00
2018-09-17T22:21:45.378Z,97831.00
2018-09-17T22:24:28.400Z,97823.00
2018-09-17T22:27:08.956Z,97831.00
2018-09-17T22:29:49.675Z,97833.00
2018-09-17T22:32:30.328Z,97832.00
2018-09-17T22:35:11.683Z,97821.00
2018-09-17T22:37:52.321Z,97822.00
2018-09-17T22:40:32.967Z,97823.00
2018-09-17T22:43:14.572Z,97817.00
2018-09-17T22:45:57.548Z,97822.00
2018-09-17T22:48:39.028Z,97829.00
2018-09-17T22:51:19.444Z,97832.00
2018-09-17T22:54:00.052Z,97832.00
2018-09-17T22:56:44.416Z,97843.00
2018-09-17T22:59:27.429Z,97837.00
2018-09-17T23:02:08.092Z,97832.00
2018-09-17T23:04:48.664Z,97830.00
2018-09-17T23:07:30.360Z,97833.00
2018-09-17T23:10:11.396Z,97830.00
2018-09-17T23:12:52.492Z,97835.00
2018-09-17T23:15:33.190Z,97836.00
2018-09-17T23:18:13.702Z,97840.00
2018-09-17T23:20:57.585Z,97833.00
2018-09-17T23:23:38.652Z,97830.00
2018-09-17T23:26:19.321Z,97831.00
2018-09-17T23:29:00.263Z,97824.00
2018-09-17T23:31:40.915Z,97832.00
2018-09-17T23:34:21.503Z,97828.00
2018-09-17T23:37:02.154Z,97827.00
2018-09-17T23:39:42.834Z,97818.00
2018-09-17T23:42:24.233Z,97823.00
2018-09-17T23:45:05.669Z,97814.00
2018-09-17T23:47:46.440Z,97804.00
2018-09-17T23:50:28.699Z,97812.00
2018-09-17T23:53:09.898Z,97821.00
2018-09-17T23:55:50.604Z,97822.00
2018-09-17T23:58:31.201Z,97816.00
